Time;durP1;ratioP1;P1;durP2;ratioP2;P2;SDS_P1;SDS_P2;PMS_P1;PMS_P2;Temp;Humidity;BMP_temperature;BMP_pressure;BME280_temperature;BME280_humidity;BME280_pressure;Samples;Min_cycle;Max_cycle;Signal;HPM_P1;HPM_P2
2023/09/14 00:01:44;;;;;;;12.18;3.30;;;15.20;99.90;;;;;;5108714;28;20040;-58
2023/09/14 00:04:12;;;;;;;10.95;3.67;;;15.20;99.90;;;;;;5104098;28;20066;-59
2023/09/14 00:06:41;;;;;;;13.77;3.47;;;15.20;99.90;;;;;;5107711;28;20048;-59
2023/09/14 00:09:09;;;;;;;10.50;3.25;;;15.10;99.90;;;;;;5100926;28;20052;-59
2023/09/14 00:11:37;;;;;;;9.80;2.95;;;15.10;99.90;;;;;;5087640;28;20044;-59
2023/09/14 00:14:04;;;;;;;10.00;3.22;;;15.10;99.90;;;;;;5106068;28;20498;-59
2023/09/14 00:16:32;;;;;;;10.45;3.60;;;15.10;99.90;;;;;;5108502;28;20791;-59
2023/09/14 00:19:00;;;;;;;11.68;3.42;;;15.10;99.90;;;;;;5108184;28;20502;-59
2023/09/14 00:21:28;;;;;;;11.27;3.13;;;15.10;99.90;;;;;;5108392;28;20533;-59
2023/09/14 00:23:55;;;;;;;7.68;2.75;;;15.10;99.90;;;;;;5103506;28;20044;-59
2023/09/14 00:26:23;;;;;;;8.32;3.13;;;15.10;99.90;;;;;;5086782;28;20056;-59
2023/09/14 00:28:51;;;;;;;9.63;3.25;;;15.00;99.90;;;;;;5083070;28;20503;-59
2023/09/14 00:31:19;;;;;;;9.05;3.65;;;15.10;99.90;;;;;;5107887;28;20055;-59
2023/09/14 00:33:46;;;;;;;9.48;2.97;;;15.00;99.90;;;;;;5107158;27;20513;-59
2023/09/14 00:36:14;;;;;;;9.00;3.33;;;15.00;99.90;;;;;;5106481;28;20411;-59
2023/09/14 00:38:41;;;;;;;7.82;2.72;;;15.00;99.90;;;;;;5094193;28;20055;-59
2023/09/14 00:41:09;;;;;;;8.30;3.33;;;15.00;99.90;;;;;;5092096;28;20055;-59
2023/09/14 00:43:39;;;;;;;12.93;3.88;;;15.00;99.90;;;;;;5102167;27;20052;-59
2023/09/14 00:46:07;;;;;;;8.53;3.60;;;14.90;99.90;;;;;;5108607;27;20056;-59
2023/09/14 00:48:35;;;;;;;9.27;3.20;;;14.90;99.90;;;;;;5101889;28;20078;-61
2023/09/14 00:51:03;;;;;;;7.25;3.20;;;14.90;99.90;;;;;;5111852;28;20075;-59
2023/09/14 00:53:31;;;;;;;7.85;3.70;;;14.80;99.90;;;;;;5111775;28;20058;-60
2023/09/14 00:55:59;;;;;;;9.85;3.58;;;14.80;99.90;;;;;;5106964;27;20036;-59
2023/09/14 00:58:27;;;;;;;11.02;3.58;;;14.70;99.90;;;;;;5099927;28;20043;-59
2023/09/14 01:00:57;;;;;;;7.65;3.63;;;14.70;99.90;;;;;;5111724;28;20047;-59
2023/09/14 01:03:26;;;;;;;10.32;3.67;;;14.70;99.90;;;;;;5120433;27;20047;-59
2023/09/14 01:05:55;;;;;;;5.25;3.17;;;14.70;99.90;;;;;;5128548;27;20054;-59
2023/09/14 01:08:22;;;;;;;6.78;3.03;;;14.70;99.90;;;;;;5097614;28;20059;-61
2023/09/14 01:10:50;;;;;;;9.43;2.83;;;14.70;99.90;;;;;;5109889;27;20055;-59
2023/09/14 01:13:29;;;;;;;6.20;3.40;;;14.70;99.90;;;;;;5110247;28;20050;-59
2023/09/14 01:16:15;;;;;;;9.60;3.37;;;14.70;99.90;;;;;;5110384;27;20047;-59
2023/09/14 01:18:52;;;;;;;6.47;3.17;;;14.60;99.90;;;;;;5112472;28;20298;-59
2023/09/14 01:21:25;;;;;;;6.75;3.13;;;14.60;99.90;;;;;;5112906;28;20048;-59
2023/09/14 01:24:31;;;;;;;7.60;3.38;;;14.60;99.90;;;;;;5110172;27;20055;-59
2023/09/14 01:26:59;;;;;;;7.07;3.40;;;14.50;99.90;;;;;;5111341;28;20054;-59
2023/09/14 01:29:27;;;;;;;7.47;3.17;;;14.50;99.90;;;;;;5103109;27;20533;-59
2023/09/14 01:31:55;;;;;;;7.65;3.47;;;14.50;99.90;;;;;;5108265;27;20043;-59
2023/09/14 01:34:23;;;;;;;8.38;3.25;;;14.50;99.90;;;;;;5134301;27;20051;-59
2023/09/14 01:36:55;;;;;;;8.23;3.28;;;14.50;99.90;;;;;;5117454;27;20070;-59
2023/09/14 01:39:25;;;;;;;6.97;3.67;;;14.50;99.90;;;;;;5111642;28;20069;-60
2023/09/14 01:41:57;;;;;;;9.95;3.63;;;14.50;99.90;;;;;;5094448;28;20376;-59
2023/09/14 01:44:27;;;;;;;10.13;3.60;;;14.50;99.90;;;;;;5101041;27;20063;-59
2023/09/14 01:46:55;;;;;;;9.05;3.70;;;14.40;99.90;;;;;;5097024;28;20063;-59
2023/09/14 01:49:23;;;;;;;7.95;3.92;;;14.40;99.90;;;;;;5119155;27;20046;-59
2023/09/14 01:51:51;;;;;;;7.68;4.20;;;14.40;99.90;;;;;;5104051;28;20058;-58
2023/09/14 01:54:19;;;;;;;8.73;3.88;;;14.30;99.90;;;;;;5115266;27;20048;-58
2023/09/14 01:56:48;;;;;;;8.70;3.97;;;14.40;99.90;;;;;;5109605;28;20078;-58
2023/09/14 01:59:15;;;;;;;9.13;4.05;;;14.30;99.90;;;;;;5111362;28;20043;-58
2023/09/14 02:01:43;;;;;;;11.07;4.28;;;14.20;99.90;;;;;;5114234;28;20049;-58
2023/09/14 02:04:11;;;;;;;8.45;4.18;;;14.30;99.90;;;;;;5128842;27;20044;-58
2023/09/14 02:06:38;;;;;;;9.95;4.47;;;14.20;99.90;;;;;;5094084;28;20419;-58
2023/09/14 02:09:06;;;;;;;7.85;3.90;;;14.10;99.90;;;;;;5107957;28;20066;-58
2023/09/14 02:11:33;;;;;;;10.35;4.15;;;14.10;99.90;;;;;;5110658;28;20411;-59
2023/09/14 02:14:01;;;;;;;9.70;4.25;;;14.00;99.90;;;;;;5112391;28;20086;-58
2023/09/14 02:16:28;;;;;;;8.60;4.30;;;14.00;99.90;;;;;;5113367;27;20047;-58
2023/09/14 02:18:56;;;;;;;9.77;4.80;;;14.00;99.90;;;;;;5112367;28;20039;-58
2023/09/14 02:21:24;;;;;;;8.75;4.47;;;13.90;99.90;;;;;;5115835;28;20043;-58
2023/09/14 02:23:51;;;;;;;10.07;4.30;;;14.00;99.90;;;;;;5115014;28;20395;-58
2023/09/14 02:26:19;;;;;;;8.00;3.85;;;13.90;99.90;;;;;;5113544;28;20052;-58
2023/09/14 02:28:46;;;;;;;8.77;3.95;;;13.90;99.90;;;;;;5112906;28;20047;-59
2023/09/14 02:31:15;;;;;;;9.43;4.40;;;13.90;99.90;;;;;;5114207;28;20047;-58
2023/09/14 02:33:42;;;;;;;7.90;3.95;;;13.90;99.90;;;;;;5119646;27;20055;-58
2023/09/14 02:36:10;;;;;;;8.82;4.43;;;13.90;99.90;;;;;;5113317;28;20051;-58
2023/09/14 02:38:38;;;;;;;10.27;4.25;;;13.80;99.90;;;;;;5108704;28;20040;-58
2023/09/14 02:41:05;;;;;;;10.80;4.70;;;13.80;99.90;;;;;;5113593;28;20161;-58
2023/09/14 02:43:33;;;;;;;14.60;4.72;;;13.80;99.90;;;;;;5112601;28;20051;-58
2023/09/14 02:46:00;;;;;;;11.25;4.70;;;13.70;99.90;;;;;;5109699;27;20487;-58
2023/09/14 02:48:28;;;;;;;11.82;4.78;;;13.70;99.90;;;;;;5111898;28;20078;-58
2023/09/14 02:50:55;;;;;;;10.23;5.05;;;13.70;99.90;;;;;;5097312;28;20051;-58
2023/09/14 02:53:23;;;;;;;9.73;4.80;;;13.70;99.90;;;;;;5093367;28;20056;-58
2023/09/14 02:55:51;;;;;;;13.30;5.53;;;13.70;99.90;;;;;;5107881;28;20555;-58
2023/09/14 02:58:18;;;;;;;12.65;4.63;;;13.70;99.90;;;;;;5109985;28;20054;-58
2023/09/14 03:00:46;;;;;;;11.35;5.30;;;13.60;99.90;;;;;;5113038;28;20063;-58
2023/09/14 03:03:18;;;;;;;9.20;5.03;;;13.60;99.90;;;;;;5122089;27;20056;-59
2023/09/14 03:05:48;;;;;;;11.23;4.68;;;13.60;99.90;;;;;;5099558;28;20046;-58
2023/09/14 03:08:16;;;;;;;11.05;4.80;;;13.50;99.90;;;;;;5114117;28;20040;-58
2023/09/14 03:10:44;;;;;;;13.45;5.93;;;13.50;99.90;;;;;;5113728;28;20486;-58
2023/09/14 03:13:11;;;;;;;8.10;5.15;;;13.50;99.90;;;;;;5111884;28;20047;-58
2023/09/14 03:15:40;;;;;;;10.13;4.90;;;13.40;99.90;;;;;;5108763;27;20047;-58
2023/09/14 03:18:07;;;;;;;10.23;5.20;;;13.40;99.90;;;;;;5112543;28;20056;-58
2023/09/14 03:20:38;;;;;;;10.48;5.18;;;13.40;99.90;;;;;;5111021;28;20039;-58
2023/09/14 03:23:06;;;;;;;9.90;5.25;;;13.30;99.90;;;;;;5113510;28;20040;-58
2023/09/14 03:25:34;;;;;;;11.98;5.50;;;13.30;99.90;;;;;;5112015;28;20047;-58
2023/09/14 03:28:01;;;;;;;8.43;5.45;;;13.20;99.90;;;;;;5106862;28;20046;-58
2023/09/14 03:30:29;;;;;;;12.05;5.82;;;13.20;99.90;;;;;;5112529;28;20422;-59
2023/09/14 03:32:56;;;;;;;13.88;5.50;;;13.20;99.90;;;;;;5115390;27;20047;-59
2023/09/14 03:35:24;;;;;;;13.23;4.85;;;13.20;99.90;;;;;;5107409;28;20035;-59
2023/09/14 03:37:51;;;;;;;11.25;5.43;;;13.20;99.90;;;;;;5114324;28;20051;-59
2023/09/14 03:40:19;;;;;;;11.10;5.88;;;13.10;99.90;;;;;;5112680;28;20051;-59
2023/09/14 03:42:46;;;;;;;16.60;6.22;;;13.10;99.90;;;;;;5112416;28;20052;-59
2023/09/14 03:45:14;;;;;;;14.38;5.65;;;13.10;99.90;;;;;;5110560;27;20141;-60
2023/09/14 03:47:41;;;;;;;14.40;5.13;;;13.10;99.90;;;;;;5112320;28;20048;-59
2023/09/14 03:50:10;;;;;;;8.85;5.50;;;13.10;99.90;;;;;;5107668;28;20498;-60
2023/09/14 03:52:38;;;;;;;13.13;5.68;;;13.10;99.90;;;;;;5110700;28;20051;-59
2023/09/14 03:55:06;;;;;;;12.30;5.63;;;13.10;99.90;;;;;;5112219;28;20510;-59
2023/09/14 03:57:33;;;;;;;10.35;5.55;;;13.10;99.90;;;;;;5110904;28;20082;-59
2023/09/14 04:00:09;;;;;;;10.35;5.53;;;13.00;99.90;;;;;;5092097;28;20052;-59
2023/09/14 04:02:39;;;;;;;12.77;5.93;;;13.10;99.90;;;;;;5107034;27;20043;-59
2023/09/14 04:05:10;;;;;;;;;;;13.10;99.90;;;;;;5126859;27;20050;-59
2023/09/14 04:07:37;;;;;;;10.65;5.75;;;13.10;99.90;;;;;;5090106;28;20029;-60
2023/09/14 04:10:06;;;;;;;13.40;5.90;;;13.10;99.90;;;;;;5116135;27;20047;-59
2023/09/14 04:12:33;;;;;;;12.20;5.57;;;13.00;99.90;;;;;;5128336;27;20039;-60
2023/09/14 04:15:01;;;;;;;12.57;5.50;;;13.00;99.90;;;;;;5111636;28;20043;-60
2023/09/14 04:17:29;;;;;;;13.80;5.30;;;13.00;99.90;;;;;;5111890;27;20066;-61
2023/09/14 04:19:57;;;;;;;12.73;5.57;;;13.10;99.90;;;;;;5110630;28;20054;-60
2023/09/14 04:22:25;;;;;;;10.43;5.57;;;13.10;99.90;;;;;;5112776;28;20035;-60
2023/09/14 04:24:52;;;;;;;11.38;5.18;;;13.00;99.90;;;;;;5111117;28;20048;-60
2023/09/14 04:27:20;;;;;;;13.02;5.20;;;13.00;99.90;;;;;;5110422;28;20399;-60
2023/09/14 04:29:48;;;;;;;10.00;5.18;;;13.00;99.90;;;;;;5110498;28;20482;-60
2023/09/14 04:32:15;;;;;;;14.20;4.90;;;13.00;99.90;;;;;;5114474;28;20398;-61
2023/09/14 04:34:43;;;;;;;14.57;5.80;;;13.00;99.90;;;;;;5133927;27;20055;-61
2023/09/14 04:37:10;;;;;;;9.77;5.13;;;13.00;99.90;;;;;;5111876;28;20051;-61
2023/09/14 04:39:38;;;;;;;11.25;5.00;;;13.00;99.90;;;;;;5110337;28;20044;-62
2023/09/14 04:42:06;;;;;;;13.90;4.75;;;13.00;99.90;;;;;;5111192;28;20047;-61
2023/09/14 04:44:34;;;;;;;8.85;5.35;;;13.00;99.90;;;;;;5104357;28;20059;-60
2023/09/14 04:47:01;;;;;;;13.07;5.15;;;13.00;99.90;;;;;;5102750;28;20039;-60
2023/09/14 04:49:30;;;;;;;14.48;5.07;;;13.10;99.90;;;;;;5106503;27;20040;-61
2023/09/14 04:51:58;;;;;;;10.75;5.60;;;13.00;99.90;;;;;;5106696;28;20048;-61
2023/09/14 04:54:26;;;;;;;8.85;4.63;;;13.00;99.90;;;;;;5105334;28;20047;-60
2023/09/14 04:56:53;;;;;;;11.68;5.60;;;13.00;99.90;;;;;;5086379;28;20048;-59
2023/09/14 04:59:24;;;;;;;11.27;4.90;;;13.10;99.90;;;;;;5120771;28;20051;-59
2023/09/14 05:01:51;;;;;;;11.82;5.47;;;13.10;99.90;;;;;;5105663;28;20052;-59
2023/09/14 05:04:20;;;;;;;9.07;4.78;;;13.10;99.90;;;;;;5097475;27;20051;-59
2023/09/14 05:06:48;;;;;;;9.07;4.97;;;13.10;99.90;;;;;;5101562;28;20054;-60
2023/09/14 05:09:18;;;;;;;8.60;4.55;;;13.10;99.90;;;;;;5094375;28;20490;-60
2023/09/14 05:11:46;;;;;;;;;;;13.10;99.90;;;;;;5088857;28;20048;-61
2023/09/14 05:14:13;;;;;;;13.00;4.45;;;13.00;99.90;;;;;;5125754;27;20293;-61
2023/09/14 05:16:41;;;;;;;9.70;4.05;;;13.00;99.90;;;;;;5101983;27;20043;-60
2023/09/14 05:19:09;;;;;;;9.23;4.05;;;13.00;99.90;;;;;;5099578;28;20059;-60
2023/09/14 05:21:37;;;;;;;8.98;4.30;;;13.00;99.90;;;;;;5099759;28;20414;-60
2023/09/14 05:24:04;;;;;;;7.18;4.45;;;13.00;99.90;;;;;;5110811;27;20048;-61
2023/09/14 05:26:32;;;;;;;9.48;4.97;;;13.00;99.90;;;;;;5106306;28;20044;-59
2023/09/14 05:29:00;;;;;;;7.85;4.38;;;13.00;99.90;;;;;;5107629;28;20509;-60
2023/09/14 05:31:27;;;;;;;9.25;5.18;;;13.00;99.90;;;;;;5114486;27;20052;-61
2023/09/14 05:33:55;;;;;;;14.50;6.47;;;13.00;99.90;;;;;;5104257;27;20047;-60
2023/09/14 05:36:23;;;;;;;16.70;5.97;;;13.00;99.90;;;;;;5107786;28;20051;-59
2023/09/14 05:38:51;;;;;;;16.48;5.30;;;13.00;99.90;;;;;;5098322;28;20051;-59
2023/09/14 05:41:19;;;;;;;15.70;4.93;;;13.00;99.90;;;;;;5088996;27;20051;-61
2023/09/14 05:43:46;;;;;;;15.18;5.60;;;13.00;99.90;;;;;;5109895;27;20051;-60
2023/09/14 05:46:14;;;;;;;12.18;5.65;;;13.00;99.90;;;;;;5088885;28;20040;-61
2023/09/14 05:48:42;;;;;;;11.32;5.05;;;13.00;99.90;;;;;;5092079;27;20047;-61
2023/09/14 05:51:11;;;;;;;13.25;5.35;;;13.00;99.90;;;;;;5090340;28;20059;-62
2023/09/14 05:53:38;;;;;;;10.20;5.32;;;13.10;99.90;;;;;;5107631;27;20063;-61
2023/09/14 05:56:07;;;;;;;9.85;4.80;;;13.00;99.90;;;;;;5110166;28;20047;-60
2023/09/14 05:58:34;;;;;;;13.45;5.65;;;13.10;99.90;;;;;;5110673;28;20050;-60
2023/09/14 06:01:04;;;;;;;10.00;4.60;;;13.00;99.90;;;;;;5092828;28;20040;-61
2023/09/14 06:03:35;;;;;;;14.20;4.93;;;13.10;99.90;;;;;;5103579;27;20055;-60
2023/09/14 06:06:03;;;;;;;11.60;5.63;;;13.10;99.90;;;;;;5089175;28;20040;-60
2023/09/14 06:08:31;;;;;;;15.80;5.13;;;13.00;99.90;;;;;;5097025;28;20427;-60
2023/09/14 06:10:59;;;;;;;13.50;5.80;;;13.00;99.90;;;;;;5091293;28;20048;-61
2023/09/14 06:13:30;;;;;;;10.48;4.68;;;13.10;99.90;;;;;;5116507;27;20111;-64
2023/09/14 06:15:57;;;;;;;11.57;5.13;;;13.10;99.90;;;;;;5130792;27;20035;-60
2023/09/14 06:18:25;;;;;;;13.43;5.22;;;13.10;99.90;;;;;;5106308;27;20055;-64
2023/09/14 06:20:53;;;;;;;15.75;6.05;;;13.00;99.90;;;;;;5097271;28;20056;-64
2023/09/14 06:23:20;;;;;;;17.05;6.80;;;13.00;99.90;;;;;;5109575;28;20055;-61
2023/09/14 06:25:51;;;;;;;13.90;6.28;;;13.00;99.90;;;;;;5110427;28;20040;-60
2023/09/14 06:28:19;;;;;;;15.77;6.45;;;13.10;99.90;;;;;;5109699;28;20047;-59
2023/09/14 06:30:46;;;;;;;9.95;6.60;;;13.10;99.90;;;;;;5108879;27;20052;-61
2023/09/14 06:33:14;;;;;;;9.95;5.32;;;13.10;99.90;;;;;;5113934;27;20043;-57
2023/09/14 06:35:42;;;;;;;12.35;5.60;;;13.10;99.90;;;;;;5100413;28;20047;-62
2023/09/14 06:38:10;;;;;;;15.55;7.07;;;13.10;99.90;;;;;;5115018;27;20497;-59
2023/09/14 06:40:38;;;;;;;11.43;6.07;;;13.10;99.90;;;;;;5127162;27;20043;-61
2023/09/14 06:43:06;;;;;;;9.70;5.55;;;13.10;99.90;;;;;;5109762;27;20044;-64
2023/09/14 06:45:34;;;;;;;12.55;6.15;;;13.20;99.90;;;;;;5095812;28;20048;-62
2023/09/14 06:48:01;;;;;;;11.65;6.93;;;13.20;99.90;;;;;;5110849;27;20043;-65
2023/09/14 06:50:29;;;;;;;8.57;5.78;;;13.20;99.90;;;;;;5099420;28;20490;-62
2023/09/14 06:52:57;;;;;;;12.20;5.93;;;13.20;99.90;;;;;;5109585;28;20051;-58
2023/09/14 06:55:25;;;;;;;11.60;6.22;;;13.30;99.90;;;;;;5109617;28;20051;-62
2023/09/14 06:57:52;;;;;;;9.52;5.63;;;13.30;99.90;;;;;;5114633;27;20066;-60
2023/09/14 07:00:21;;;;;;;10.88;5.53;;;13.30;99.90;;;;;;5104741;27;20048;-60
2023/09/14 07:02:49;;;;;;;8.63;6.10;;;13.30;99.90;;;;;;5106687;27;20046;-62
2023/09/14 07:05:17;;;;;;;10.93;6.25;;;13.30;99.90;;;;;;5089619;27;20044;-65
2023/09/14 07:07:45;;;;;;;13.80;6.05;;;13.40;99.90;;;;;;5093540;28;20113;-64
2023/09/14 07:10:13;;;;;;;15.80;5.60;;;13.40;99.90;;;;;;5097758;28;20055;-64
2023/09/14 07:12:41;;;;;;;7.43;4.45;;;13.40;99.90;;;;;;5096390;28;20040;-63
2023/09/14 07:15:09;;;;;;;16.45;5.93;;;13.50;99.90;;;;;;5103441;28;20044;-64
2023/09/14 07:17:36;;;;;;;9.73;5.30;;;13.50;99.90;;;;;;5098393;28;20040;-64
2023/09/14 07:20:06;;;;;;;15.85;6.95;;;13.50;99.90;;;;;;5106831;28;20055;-60
2023/09/14 07:22:39;;;;;;;11.38;5.95;;;13.60;99.90;;;;;;5105767;27;20509;-64
2023/09/14 07:25:08;;;;;;;13.55;5.30;;;13.60;99.90;;;;;;5109123;28;20043;-65
2023/09/14 07:27:37;;;;;;;22.20;5.93;;;13.70;99.90;;;;;;5098814;28;20047;-65
2023/09/14 07:30:05;;;;;;;18.48;6.22;;;13.70;99.90;;;;;;5095908;28;20051;-63
2023/09/14 07:32:34;;;;;;;10.82;5.68;;;13.70;99.90;;;;;;5103350;27;20525;-63
2023/09/14 07:35:02;;;;;;;11.53;5.37;;;13.80;99.90;;;;;;5094941;28;20075;-64
2023/09/14 07:37:30;;;;;;;10.73;5.63;;;13.80;99.90;;;;;;5100878;28;20506;-64
2023/09/14 07:39:58;;;;;;;13.50;5.65;;;13.80;99.90;;;;;;5102528;28;20483;-64
2023/09/14 07:42:25;;;;;;;8.13;4.95;;;13.90;99.90;;;;;;5107567;27;20044;-64
2023/09/14 07:44:53;;;;;;;12.55;5.45;;;13.90;99.90;;;;;;5108601;28;20032;-65
2023/09/14 07:47:28;;;;;;;11.98;5.15;;;13.90;99.90;;;;;;5106255;27;20048;-66
2023/09/14 07:49:56;;;;;;;13.73;5.35;;;13.90;99.90;;;;;;5104941;28;20522;-65
2023/09/14 07:52:24;;;;;;;13.00;5.75;;;13.90;99.90;;;;;;5097189;27;20054;-63
2023/09/14 07:54:51;;;;;;;10.38;5.10;;;14.00;99.90;;;;;;5102629;28;20394;-64
2023/09/14 07:57:19;;;;;;;10.32;5.00;;;14.10;99.90;;;;;;5091872;28;20043;-64
2023/09/14 07:59:47;;;;;;;8.93;4.70;;;14.00;99.90;;;;;;5097951;28;20403;-64
2023/09/14 08:02:15;;;;;;;7.03;5.15;;;14.00;99.90;;;;;;5099460;28;20515;-66
2023/09/14 08:04:42;;;;;;;9.25;4.93;;;14.10;99.90;;;;;;5096187;28;20048;-65
2023/09/14 08:07:10;;;;;;;10.30;5.13;;;14.10;99.90;;;;;;5099601;28;20505;-64
2023/09/14 08:09:38;;;;;;;14.73;5.43;;;14.10;99.90;;;;;;5097983;28;20039;-64
2023/09/14 08:12:05;;;;;;;10.65;5.43;;;14.10;99.90;;;;;;5093525;28;20051;-64
2023/09/14 08:14:33;;;;;;;13.00;5.50;;;14.10;99.90;;;;;;5128854;27;20619;-65
2023/09/14 08:17:01;;;;;;;10.48;5.70;;;14.10;99.90;;;;;;5114820;28;20359;-65
2023/09/14 08:19:29;;;;;;;10.57;5.45;;;14.10;99.90;;;;;;5101418;28;20052;-64
2023/09/14 08:21:57;;;;;;;7.40;4.95;;;14.20;99.90;;;;;;5088891;28;20055;-63
2023/09/14 08:24:25;;;;;;;12.32;5.68;;;14.20;99.90;;;;;;5088077;28;20059;-64
2023/09/14 08:26:52;;;;;;;13.45;5.18;;;14.20;99.90;;;;;;5088005;28;20043;-65
2023/09/14 08:29:20;;;;;;;13.35;5.47;;;14.20;99.90;;;;;;5103913;28;20047;-63
2023/09/14 08:31:49;;;;;;;14.23;5.30;;;14.20;99.90;;;;;;5104417;28;20058;-63
2023/09/14 08:34:17;;;;;;;11.20;5.07;;;14.20;99.90;;;;;;5096627;28;20036;-66
2023/09/14 08:36:45;;;;;;;8.00;5.43;;;14.20;99.90;;;;;;5090105;28;20327;-65
2023/09/14 08:39:12;;;;;;;7.65;4.85;;;14.20;99.90;;;;;;5108828;28;20055;-64
2023/09/14 08:41:44;;;;;;;8.00;4.95;;;14.30;99.90;;;;;;5106952;28;20062;-63
2023/09/14 08:44:13;;;;;;;7.93;5.40;;;14.20;99.90;;;;;;5104577;28;20067;-65
2023/09/14 08:46:42;;;;;;;13.23;6.00;;;14.30;99.90;;;;;;5106980;28;20411;-64
2023/09/14 08:49:11;;;;;;;10.70;5.60;;;14.30;99.90;;;;;;5102787;28;20051;-64
2023/09/14 08:51:41;;;;;;;12.63;5.45;;;14.30;99.90;;;;;;5106761;28;20044;-66
2023/09/14 08:54:08;;;;;;;10.35;5.20;;;14.30;99.90;;;;;;5120257;27;20494;-58
2023/09/14 08:56:45;;;;;;;11.73;5.55;;;14.40;99.90;;;;;;5124696;27;20039;-64
2023/09/14 08:59:16;;;;;;;10.95;6.05;;;14.40;99.90;;;;;;5109651;28;20058;-64
2023/09/14 09:01:44;;;;;;;12.07;5.57;;;14.40;99.90;;;;;;5099174;27;20406;-62
2023/09/14 09:04:12;;;;;;;10.85;5.32;;;14.40;99.90;;;;;;5113381;27;20051;-62
2023/09/14 09:06:42;;;;;;;7.43;5.18;;;14.40;99.90;;;;;;5072843;28;20403;-60
2023/09/14 09:09:17;;;;;;;9.88;4.55;;;14.50;99.90;;;;;;5110043;27;20047;-60
2023/09/14 09:11:46;;;;;;;5.60;4.53;;;14.50;99.90;;;;;;5099143;28;20051;-63
2023/09/14 09:14:15;;;;;;;7.07;4.38;;;14.50;99.90;;;;;;5121453;27;20040;-63
2023/09/14 09:16:43;;;;;;;9.57;5.80;;;14.50;99.90;;;;;;5111985;28;20047;-62
2023/09/14 09:19:11;;;;;;;7.63;4.70;;;14.50;99.90;;;;;;5110330;28;20047;-62
2023/09/14 09:21:41;;;;;;;11.32;5.10;;;14.50;99.90;;;;;;5107159;27;20047;-63
2023/09/14 09:24:13;;;;;;;7.13;4.68;;;14.50;99.90;;;;;;5110988;28;20509;-62
2023/09/14 09:26:41;;;;;;;11.35;5.28;;;14.50;99.90;;;;;;5111720;28;20054;-61
2023/09/14 09:29:16;;;;;;;7.22;5.32;;;14.60;99.90;;;;;;5105732;28;20387;-62
2023/09/14 09:31:46;;;;;;;7.22;4.60;;;14.60;99.90;;;;;;5090651;28;20051;-63
2023/09/14 09:34:19;;;;;;;5.30;4.03;;;14.70;99.90;;;;;;5108735;27;20040;-61
2023/09/14 09:36:52;;;;;;;10.18;4.28;;;14.70;99.90;;;;;;5090906;28;20055;-62
2023/09/14 09:39:20;;;;;;;8.25;4.30;;;14.80;99.90;;;;;;5102050;28;20340;-62
2023/09/14 09:41:48;;;;;;;5.95;3.78;;;14.80;99.90;;;;;;5091267;28;20372;-62
2023/09/14 09:44:18;;;;;;;5.43;4.13;;;14.90;99.90;;;;;;5113779;27;20384;-63
2023/09/14 09:46:46;;;;;;;7.63;4.18;;;14.90;99.90;;;;;;5108465;28;20070;-64
2023/09/14 09:49:18;;;;;;;5.00;3.70;;;15.00;99.90;;;;;;5097617;28;20387;-63
2023/09/14 09:51:51;;;;;;;6.20;3.60;;;15.00;99.90;;;;;;5091110;28;20052;-64
2023/09/14 09:54:20;;;;;;;6.28;3.75;;;15.10;99.90;;;;;;5109622;27;20065;-63
2023/09/14 09:56:49;;;;;;;5.13;3.30;;;15.20;99.90;;;;;;5110300;28;20054;-64
2023/09/14 09:59:17;;;;;;;5.32;3.28;;;15.20;99.90;;;;;;5097226;27;20047;-59
2023/09/14 10:01:47;;;;;;;6.43;3.85;;;15.20;99.90;;;;;;5101587;28;20048;-64
2023/09/14 10:04:17;;;;;;;6.65;3.40;;;15.30;99.90;;;;;;5108359;27;20063;-64
2023/09/14 10:06:50;;;;;;;5.63;3.42;;;15.40;99.90;;;;;;5098717;27;20413;-61
2023/09/14 10:09:18;;;;;;;4.28;3.15;;;15.40;99.90;;;;;;5106312;28;20046;-63
2023/09/14 10:11:49;;;;;;;3.72;3.08;;;15.50;99.90;;;;;;5104051;28;20051;-65
2023/09/14 10:14:21;;;;;;;5.57;3.05;;;15.50;99.90;;;;;;5111718;27;20043;-64
2023/09/14 10:16:53;;;;;;;5.10;3.22;;;15.70;99.90;;;;;;5089801;28;20561;-65
2023/09/14 10:19:23;;;;;;;3.20;2.72;;;15.80;99.90;;;;;;5106641;28;20035;-64
2023/09/14 10:21:52;;;;;;;2.60;2.40;;;15.90;99.90;;;;;;5104959;27;20808;-63
2023/09/14 10:24:21;;;;;;;3.88;2.97;;;15.90;99.90;;;;;;5105560;28;20051;-65
2023/09/14 10:26:51;;;;;;;3.42;2.63;;;16.00;99.90;;;;;;5107133;28;20055;-64
2023/09/14 10:29:20;;;;;;;3.80;2.47;;;16.10;99.90;;;;;;5094990;28;20047;-64
2023/09/14 10:31:51;;;;;;;4.95;2.55;;;16.10;99.90;;;;;;5097803;27;20035;-63
2023/09/14 10:34:20;;;;;;;3.30;3.00;;;16.20;99.90;;;;;;5099864;27;20052;-63
2023/09/14 10:36:51;;;;;;;3.75;2.58;;;16.20;99.90;;;;;;5095556;27;20063;-64
2023/09/14 10:39:22;;;;;;;2.95;1.90;;;16.30;99.90;;;;;;5095864;28;20051;-64
2023/09/14 10:41:50;;;;;;;3.40;2.20;;;16.30;99.90;;;;;;5109129;28;20073;-65
2023/09/14 10:44:18;;;;;;;3.03;2.67;;;16.30;99.90;;;;;;5113446;27;20391;-66
2023/09/14 10:46:48;;;;;;;2.60;2.40;;;16.30;99.90;;;;;;5107430;27;20050;-66
2023/09/14 10:49:16;;;;;;;2.92;2.40;;;16.30;99.90;;;;;;5075559;28;20048;-65
2023/09/14 10:51:47;;;;;;;4.57;2.50;;;16.30;99.90;;;;;;5091891;28;20063;-62
2023/09/14 10:54:15;;;;;;;3.10;1.98;;;16.30;99.90;;;;;;5120426;27;20043;-64
2023/09/14 10:56:45;;;;;;;1.92;1.55;;;16.30;99.90;;;;;;5109020;28;20052;-66
2023/09/14 10:59:14;;;;;;;2.92;1.80;;;16.30;99.90;;;;;;5103554;28;20395;-60
2023/09/14 11:01:47;;;;;;;3.42;2.10;;;16.30;99.90;;;;;;5106576;28;20059;-63
2023/09/14 11:04:21;;;;;;;4.13;3.00;;;16.30;99.90;;;;;;5101550;27;20055;-64
2023/09/14 11:06:52;;;;;;;4.93;2.15;;;16.40;99.90;;;;;;5087253;28;20752;-63
2023/09/14 11:09:23;;;;;;;3.03;2.17;;;16.50;99.90;;;;;;5103595;28;20319;-64
2023/09/14 11:11:54;;;;;;;4.55;1.85;;;16.60;99.90;;;;;;5103827;28;20071;-62
2023/09/14 11:14:27;;;;;;;4.57;2.10;;;16.70;99.90;;;;;;5102573;28;20043;-65
2023/09/14 11:16:58;;;;;;;3.00;1.88;;;16.90;99.90;;;;;;5104387;28;20035;-65
2023/09/14 11:19:29;;;;;;;3.40;1.85;;;17.00;99.90;;;;;;5101600;28;20063;-65
2023/09/14 11:22:15;;;;;;;4.45;2.38;;;17.10;99.90;;;;;;5097921;28;20058;-64
2023/09/14 11:24:46;;;;;;;4.32;1.98;;;17.10;99.90;;;;;;5105624;28;20048;-64
2023/09/14 11:27:18;;;;;;;5.90;2.00;;;17.10;99.90;;;;;;5105812;28;20058;-62
2023/09/14 11:29:51;;;;;;;3.30;1.90;;;17.10;99.90;;;;;;5105074;28;20495;-64
2023/09/14 11:32:22;;;;;;;3.17;2.40;;;17.10;99.90;;;;;;5106911;27;20084;-59
2023/09/14 11:34:57;;;;;;;2.95;1.77;;;17.10;99.90;;;;;;5108413;27;20380;-60
2023/09/14 11:37:35;;;;;;;2.72;1.80;;;17.20;99.90;;;;;;5103717;28;20047;-60
2023/09/14 11:40:15;;;;;;;2.38;1.70;;;17.20;99.90;;;;;;5103397;28;20055;-59
2023/09/14 11:43:06;;;;;;;4.55;1.80;;;17.20;99.90;;;;;;5099014;28;20114;-59
2023/09/14 11:45:43;;;;;;;4.18;1.80;;;17.20;99.90;;;;;;5103451;28;20051;-63
2023/09/14 11:48:18;;;;;;;2.15;1.45;;;17.30;99.90;;;;;;5103716;27;20043;-60
2023/09/14 11:50:51;;;;;;;1.75;0.90;;;17.30;99.90;;;;;;5097090;28;20048;-64
2023/09/14 11:53:21;;;;;;;4.57;0.80;;;17.50;99.90;;;;;;5119966;27;20399;-65
2023/09/14 11:55:49;;;;;;;;;;;17.60;99.90;;;;;;5102543;27;20368;-64
2023/09/14 11:58:17;;;;;;;4.82;1.00;;;17.60;99.90;;;;;;5099406;28;19920;-64
2023/09/14 12:00:48;;;;;;;5.32;0.88;;;17.70;99.90;;;;;;5094468;28;20534;-64
2023/09/14 12:03:16;;;;;;;4.03;1.00;;;17.80;99.90;;;;;;5111656;27;20072;-63
2023/09/14 12:05:45;;;;;;;1.58;0.52;;;18.00;99.90;;;;;;5112194;27;20043;-64
2023/09/14 12:08:15;;;;;;;2.15;0.65;;;18.10;99.90;;;;;;5105365;28;20067;-64
2023/09/14 12:10:45;;;;;;;;;;;18.10;99.90;;;;;;5092009;28;20043;-63
2023/09/14 12:13:17;;;;;;;3.00;0.65;;;18.20;99.90;;;;;;5108674;27;19923;-64
2023/09/14 12:15:47;;;;;;;5.43;0.75;;;18.30;99.90;;;;;;5099928;28;20056;-63
2023/09/14 12:18:16;;;;;;;2.58;0.70;;;18.30;99.90;;;;;;5090268;28;20487;-63
2023/09/14 12:20:45;;;;;;;2.55;0.80;;;18.40;99.90;;;;;;5101261;28;20047;-60
2023/09/14 12:23:14;;;;;;;0.65;0.55;;;18.50;99.90;;;;;;5095234;28;20043;-63
2023/09/14 12:25:43;;;;;;;6.00;0.70;;;18.60;99.90;;;;;;5102989;28;20043;-63
2023/09/14 12:28:12;;;;;;;3.25;1.02;;;18.60;99.90;;;;;;5107866;28;20502;-64
2023/09/14 12:30:40;;;;;;;3.25;0.90;;;18.80;99.90;;;;;;5107448;28;20486;-63
2023/09/14 12:33:10;;;;;;;5.85;1.15;;;18.80;99.90;;;;;;5106737;27;20044;-63
2023/09/14 12:35:41;;;;;;;4.45;0.75;;;18.80;99.90;;;;;;5107275;27;20050;-64
2023/09/14 12:38:09;;;;;;;1.80;0.90;;;18.80;99.90;;;;;;5102157;28;20048;-64
2023/09/14 12:40:38;;;;;;;3.78;0.90;;;18.80;99.90;;;;;;5106653;28;20039;-64
2023/09/14 12:43:07;;;;;;;3.15;1.00;;;18.60;99.90;;;;;;5109758;28;20043;-59
2023/09/14 12:45:35;;;;;;;2.85;0.90;;;18.60;99.90;;;;;;5111606;28;20044;-62
2023/09/14 12:48:04;;;;;;;2.00;0.80;;;18.60;99.90;;;;;;5103357;28;20487;-63
2023/09/14 12:50:34;;;;;;;4.20;0.70;;;18.50;99.90;;;;;;5098394;28;20050;-64
2023/09/14 12:53:09;;;;;;;1.20;0.60;;;18.40;99.90;;;;;;5113483;27;21359;-63